WARM SPRINGS (USACE) (WRS)

Elevation: 440' · RUSSIAN R basin · Operator: US Army Corps of Engineers

Provisional data, subject to change.
Query executed Saturday at 12:57:28   clock

Select a sensor type for a plot of data.
Note: Reservoir Flows are daily averages.

Earlier

Date RES ELE    STORAGE    RES CHG    TOC STO    OUTFLOW    INFLOW    PPT INC    TEMP MN    TEMP MX    EVP PAN   
 FEET   AF   AF   AF   CFS   CFS   INCHES   DEG F   DEG F   INCHES  
03/20/2014 423.08 178441 -107 245000 88 41 0.00 45 78 0.11
03/21/2014 423.03 178335 -106 245000 90 42 0.00 38 73 0.09
03/22/2014 422.96 178185 -150 245000 89 19 0.00 35 74 0.09
03/23/2014 422.91 178079 -106 245000 89 41 0.00 38 76 0.09
03/24/2014 422.85 177951 -128 245000 89 31 0.00 37 80 0.10
03/25/2014 422.83 177909 -42 245000 89 70 0.20 36 61 0.03
03/26/2014 422.87 177994 85 245000 88 133 0.55 46 61 0.04
03/27/2014 422.87 177994 0 245000 89 91 0.12 45 58 0.03
03/28/2014 422.92 178100 106 245000 89 145 0.34 52 64 0.05
03/29/2014 424.02 180452 2352 245000 89 1276 0.70 45 60 0.02
03/30/2014 424.29 181033 581 245000 89 386 0.01 39 63 0.07
03/31/2014 425.00 182566 1533 245000 93 866 1.05 39 49 0.00
04/01/2014 425.76 184216 1650 245000 95 929 0.70 43 52 0.03
04/02/2014 426.29 185372 1156 245000 95 684 0.06 43 65 0.11
04/03/2014 426.59 186029 657 245000 94 430 0.00 39 64 0.08
04/04/2014 426.86 186622 593 245000 93 397 0.43 47 64 0.07
04/05/2014 427.00 186930 308 245000 94 256 0.05 42 74 0.11
04/06/2014 427.10 187150 220 245000 94 213 0.05 49 85 0.13
04/07/2014 427.16 187282 132 245000 94 169 0.04 49 90 0.13
04/08/2014 427.19 187348 66 245000 94 135 0.01 49 86 0.13
04/09/2014 427.20 187370 22 245000 93 112 0.00 44 79 0.12
04/10/2014 427.21 187392 22 245000 93 112 0.00 48 85 0.13
04/11/2014 427.20 187370 -22 245000 93 89 0.00 48 75 0.12
04/12/2014 427.18 187326 -44 245000 93 77 0.00 50 71 0.10
04/13/2014 427.15 187260 -66 245000 93 68 0.00 50 82 0.13
04/14/2014 427.12 187194 -66 245000 84 58 0.00 44 79 0.12
04/15/2014 427.11 187172 -22 245000 77 74 0.01 48 79 0.13
04/16/2014 427.09 187128 -44 245000 77 67 0.00 57 88 0.20
04/17/2014 427.04 187018 -110 245000 79 35 0.00 56 82 0.18
04/18/2014 426.99 186908 -110 245000 79 34 0.00 49 80 0.17
04/19/2014 -- -- -- -- -- -- -- -- -- --

Later | Latest

Warning! This data is preliminary and subject to revision.

Download Data Now Download Data Now | Show WRS Map | Plot WRS Data | 1 Month WRS Data | Real-Time WRS Data | WRS Info